sensor_id;sensor_type;location;lat;lon;timestamp;P1;durP1;ratioP1;P2;durP2;ratioP2
49039;SDS011;36811;49.732;13.402;2022-10-19T00:01:13;205.95;;;37.22;;
49039;SDS011;36811;49.732;13.402;2022-10-19T00:03:45;201.43;;;37.08;;
49039;SDS011;36811;49.732;13.402;2022-10-19T00:06:20;195.82;;;39.08;;
49039;SDS011;36811;49.732;13.402;2022-10-19T00:08:51;221.75;;;49.03;;
49039;SDS011;36811;49.732;13.402;2022-10-19T00:11:18;203.10;;;44.88;;
49039;SDS011;36811;49.732;13.402;2022-10-19T00:13:44;127.05;;;32.78;;
49039;SDS011;36811;49.732;13.402;2022-10-19T00:16:11;152.50;;;38.90;;
49039;SDS011;36811;49.732;13.402;2022-10-19T00:18:39;189.15;;;38.10;;
49039;SDS011;36811;49.732;13.402;2022-10-19T00:21:08;159.98;;;36.70;;
49039;SDS011;36811;49.732;13.402;2022-10-19T00:23:35;136.18;;;35.67;;
49039;SDS011;36811;49.732;13.402;2022-10-19T00:26:01;323.48;;;52.58;;
49039;SDS011;36811;49.732;13.402;2022-10-19T00:28:27;278.75;;;42.28;;
49039;SDS011;36811;49.732;13.402;2022-10-19T00:30:53;260.55;;;47.05;;
49039;SDS011;36811;49.732;13.402;2022-10-19T00:33:19;382.20;;;60.72;;
49039;SDS011;36811;49.732;13.402;2022-10-19T00:35:48;149.77;;;40.00;;
49039;SDS011;36811;49.732;13.402;2022-10-19T00:38:18;147.55;;;39.95;;
49039;SDS011;36811;49.732;13.402;2022-10-19T00:40:45;191.98;;;39.20;;
49039;SDS011;36811;49.732;13.402;2022-10-19T00:43:15;204.60;;;40.15;;
49039;SDS011;36811;49.732;13.402;2022-10-19T00:45:43;293.83;;;42.28;;
49039;SDS011;36811;49.732;13.402;2022-10-19T00:48:10;273.30;;;45.35;;
49039;SDS011;36811;49.732;13.402;2022-10-19T00:50:40;358.10;;;58.47;;
49039;SDS011;36811;49.732;13.402;2022-10-19T00:53:06;403.20;;;44.40;;
49039;SDS011;36811;49.732;13.402;2022-10-19T00:55:32;555.28;;;66.10;;
49039;SDS011;36811;49.732;13.402;2022-10-19T00:57:59;376.77;;;34.90;;
49039;SDS011;36811;49.732;13.402;2022-10-19T01:00:26;542.88;;;50.72;;
49039;SDS011;36811;49.732;13.402;2022-10-19T01:02:53;368.33;;;40.95;;
49039;SDS011;36811;49.732;13.402;2022-10-19T01:05:18;474.30;;;46.50;;
49039;SDS011;36811;49.732;13.402;2022-10-19T01:07:44;450.27;;;43.35;;
49039;SDS011;36811;49.732;13.402;2022-10-19T01:10:10;345.88;;;39.85;;
49039;SDS011;36811;49.732;13.402;2022-10-19T01:12:50;418.27;;;46.05;;
49039;SDS011;36811;49.732;13.402;2022-10-19T01:21:24;487.63;;;47.88;;
49039;SDS011;36811;49.732;13.402;2022-10-19T01:39:54;267.63;;;37.03;;
49039;SDS011;36811;49.732;13.402;2022-10-19T01:42:17;277.10;;;36.08;;
49039;SDS011;36811;49.732;13.402;2022-10-19T01:45:07;309.27;;;42.58;;
49039;SDS011;36811;49.732;13.402;2022-10-19T01:47:54;381.48;;;46.15;;
49039;SDS011;36811;49.732;13.402;2022-10-19T01:50:27;484.50;;;51.72;;
49039;SDS011;36811;49.732;13.402;2022-10-19T01:52:54;268.58;;;35.78;;
49039;SDS011;36811;49.732;13.402;2022-10-19T01:55:21;609.63;;;51.50;;
49039;SDS011;36811;49.732;13.402;2022-10-19T01:57:55;286.52;;;36.78;;
49039;SDS011;36811;49.732;13.402;2022-10-19T02:00:25;353.90;;;36.60;;
49039;SDS011;36811;49.732;13.402;2022-10-19T02:02:53;374.42;;;39.47;;
49039;SDS011;36811;49.732;13.402;2022-10-19T02:05:21;270.35;;;33.50;;
49039;SDS011;36811;49.732;13.402;2022-10-19T02:07:55;375.98;;;45.13;;
49039;SDS011;36811;49.732;13.402;2022-10-19T02:10:24;319.80;;;39.55;;
49039;SDS011;36811;49.732;13.402;2022-10-19T02:12:52;420.50;;;44.92;;
49039;SDS011;36811;49.732;13.402;2022-10-19T02:15:20;305.73;;;42.72;;
49039;SDS011;36811;49.732;13.402;2022-10-19T02:17:49;270.42;;;38.60;;
49039;SDS011;36811;49.732;13.402;2022-10-19T02:20:17;231.68;;;33.65;;
49039;SDS011;36811;49.732;13.402;2022-10-19T02:22:44;93.35;;;25.30;;
49039;SDS011;36811;49.732;13.402;2022-10-19T02:25:10;142.40;;;29.40;;
49039;SDS011;36811;49.732;13.402;2022-10-19T02:27:37;87.30;;;25.90;;
49039;SDS011;36811;49.732;13.402;2022-10-19T02:30:10;84.95;;;25.58;;
49039;SDS011;36811;49.732;13.402;2022-10-19T02:32:38;77.35;;;24.98;;
49039;SDS011;36811;49.732;13.402;2022-10-19T02:35:04;205.75;;;32.50;;
49039;SDS011;36811;49.732;13.402;2022-10-19T02:37:31;124.32;;;28.73;;
49039;SDS011;36811;49.732;13.402;2022-10-19T02:39:57;142.43;;;28.60;;
49039;SDS011;36811;49.732;13.402;2022-10-19T02:42:32;145.27;;;27.33;;
49039;SDS011;36811;49.732;13.402;2022-10-19T02:47:48;70.72;;;24.08;;
49039;SDS011;36811;49.732;13.402;2022-10-19T02:50:23;34.85;;;14.30;;
49039;SDS011;36811;49.732;13.402;2022-10-19T02:52:49;29.55;;;13.13;;
49039;SDS011;36811;49.732;13.402;2022-10-19T02:55:14;17.13;;;9.25;;
49039;SDS011;36811;49.732;13.402;2022-10-19T02:57:40;18.25;;;9.45;;
49039;SDS011;36811;49.732;13.402;2022-10-19T03:00:07;24.27;;;10.10;;
49039;SDS011;36811;49.732;13.402;2022-10-19T03:02:33;12.50;;;8.00;;
49039;SDS011;36811;49.732;13.402;2022-10-19T03:04:59;31.33;;;13.77;;
49039;SDS011;36811;49.732;13.402;2022-10-19T03:07:25;29.27;;;12.27;;
49039;SDS011;36811;49.732;13.402;2022-10-19T03:09:50;23.52;;;11.90;;
49039;SDS011;36811;49.732;13.402;2022-10-19T03:12:16;39.95;;;13.20;;
49039;SDS011;36811;49.732;13.402;2022-10-19T03:14:42;17.52;;;9.75;;
49039;SDS011;36811;49.732;13.402;2022-10-19T03:17:08;20.08;;;10.57;;
49039;SDS011;36811;49.732;13.402;2022-10-19T03:19:34;22.08;;;9.43;;
49039;SDS011;36811;49.732;13.402;2022-10-19T03:22:01;23.52;;;10.75;;
49039;SDS011;36811;49.732;13.402;2022-10-19T03:24:28;40.30;;;12.50;;
49039;SDS011;36811;49.732;13.402;2022-10-19T03:26:55;21.40;;;10.32;;
49039;SDS011;36811;49.732;13.402;2022-10-19T03:29:21;38.35;;;14.73;;
49039;SDS011;36811;49.732;13.402;2022-10-19T03:31:47;51.17;;;17.65;;
49039;SDS011;36811;49.732;13.402;2022-10-19T03:34:14;50.30;;;17.98;;
49039;SDS011;36811;49.732;13.402;2022-10-19T03:36:40;24.92;;;10.68;;
49039;SDS011;36811;49.732;13.402;2022-10-19T03:39:06;37.58;;;17.08;;
49039;SDS011;36811;49.732;13.402;2022-10-19T03:41:38;25.20;;;12.95;;
49039;SDS011;36811;49.732;13.402;2022-10-19T03:44:05;23.23;;;11.73;;
49039;SDS011;36811;49.732;13.402;2022-10-19T03:46:32;43.72;;;16.25;;
49039;SDS011;36811;49.732;13.402;2022-10-19T03:48:58;23.30;;;13.18;;
49039;SDS011;36811;49.732;13.402;2022-10-19T03:51:25;49.33;;;17.70;;
49039;SDS011;36811;49.732;13.402;2022-10-19T03:53:53;41.67;;;19.40;;
49039;SDS011;36811;49.732;13.402;2022-10-19T03:56:22;50.20;;;19.42;;
49039;SDS011;36811;49.732;13.402;2022-10-19T03:58:50;46.88;;;17.83;;
49039;SDS011;36811;49.732;13.402;2022-10-19T04:01:19;56.97;;;15.88;;
49039;SDS011;36811;49.732;13.402;2022-10-19T04:04:06;58.20;;;19.67;;
49039;SDS011;36811;49.732;13.402;2022-10-19T04:06:35;67.18;;;21.45;;
49039;SDS011;36811;49.732;13.402;2022-10-19T04:09:03;45.47;;;19.00;;
49039;SDS011;36811;49.732;13.402;2022-10-19T04:11:32;40.55;;;16.35;;
49039;SDS011;36811;49.732;13.402;2022-10-19T04:14:00;60.13;;;19.83;;
49039;SDS011;36811;49.732;13.402;2022-10-19T04:16:27;39.83;;;17.88;;
49039;SDS011;36811;49.732;13.402;2022-10-19T04:18:54;35.47;;;15.55;;
49039;SDS011;36811;49.732;13.402;2022-10-19T04:21:24;32.78;;;14.35;;
49039;SDS011;36811;49.732;13.402;2022-10-19T04:23:52;15.77;;;11.07;;
49039;SDS011;36811;49.732;13.402;2022-10-19T04:26:24;27.50;;;12.82;;
49039;SDS011;36811;49.732;13.402;2022-10-19T04:28:50;61.15;;;17.13;;
49039;SDS011;36811;49.732;13.402;2022-10-19T04:31:16;38.28;;;15.52;;
49039;SDS011;36811;49.732;13.402;2022-10-19T04:33:41;31.92;;;12.95;;
49039;SDS011;36811;49.732;13.402;2022-10-19T04:36:08;26.52;;;12.88;;
49039;SDS011;36811;49.732;13.402;2022-10-19T04:38:36;38.47;;;17.02;;
49039;SDS011;36811;49.732;13.402;2022-10-19T04:41:06;98.82;;;22.85;;
49039;SDS011;36811;49.732;13.402;2022-10-19T04:43:35;277.33;;;39.25;;
49039;SDS011;36811;49.732;13.402;2022-10-19T04:46:12;372.98;;;25.05;;
49039;SDS011;36811;49.732;13.402;2022-10-19T04:48:39;201.10;;;25.55;;
49039;SDS011;36811;49.732;13.402;2022-10-19T04:51:06;263.90;;;26.02;;
49039;SDS011;36811;49.732;13.402;2022-10-19T04:53:33;408.23;;;40.65;;
49039;SDS011;36811;49.732;13.402;2022-10-19T04:56:04;152.00;;;17.83;;
49039;SDS011;36811;49.732;13.402;2022-10-19T04:58:32;341.42;;;36.75;;
49039;SDS011;36811;49.732;13.402;2022-10-19T05:00:57;226.02;;;23.13;;
49039;SDS011;36811;49.732;13.402;2022-10-19T05:03:23;203.05;;;21.00;;
49039;SDS011;36811;49.732;13.402;2022-10-19T05:05:48;277.38;;;26.13;;
49039;SDS011;36811;49.732;13.402;2022-10-19T05:08:15;160.70;;;18.77;;
49039;SDS011;36811;49.732;13.402;2022-10-19T05:10:40;189.63;;;21.77;;
49039;SDS011;36811;49.732;13.402;2022-10-19T05:13:06;370.58;;;35.72;;
49039;SDS011;36811;49.732;13.402;2022-10-19T05:15:32;533.45;;;36.67;;
49039;SDS011;36811;49.732;13.402;2022-10-19T05:17:57;293.23;;;24.73;;
49039;SDS011;36811;49.732;13.402;2022-10-19T05:20:23;290.13;;;23.67;;
49039;SDS011;36811;49.732;13.402;2022-10-19T05:22:49;178.25;;;21.27;;
49039;SDS011;36811;49.732;13.402;2022-10-19T05:25:16;206.85;;;23.08;;
49039;SDS011;36811;49.732;13.402;2022-10-19T05:27:41;145.93;;;19.15;;
49039;SDS011;36811;49.732;13.402;2022-10-19T05:30:08;147.35;;;21.60;;
49039;SDS011;36811;49.732;13.402;2022-10-19T05:32:34;221.43;;;26.13;;
49039;SDS011;36811;49.732;13.402;2022-10-19T05:35:00;196.93;;;25.50;;
49039;SDS011;36811;49.732;13.402;2022-10-19T05:37:25;206.90;;;24.90;;
49039;SDS011;36811;49.732;13.402;2022-10-19T05:39:52;126.05;;;20.05;;
49039;SDS011;36811;49.732;13.402;2022-10-19T05:42:18;196.50;;;23.98;;
49039;SDS011;36811;49.732;13.402;2022-10-19T05:44:44;279.20;;;27.92;;
49039;SDS011;36811;49.732;13.402;2022-10-19T05:47:10;164.90;;;22.52;;
49039;SDS011;36811;49.732;13.402;2022-10-19T05:49:36;188.40;;;24.33;;
49039;SDS011;36811;49.732;13.402;2022-10-19T05:52:01;122.88;;;21.88;;
49039;SDS011;36811;49.732;13.402;2022-10-19T05:54:27;198.88;;;25.00;;
49039;SDS011;36811;49.732;13.402;2022-10-19T05:56:53;103.70;;;20.23;;
49039;SDS011;36811;49.732;13.402;2022-10-19T05:59:20;110.30;;;21.77;;
49039;SDS011;36811;49.732;13.402;2022-10-19T06:01:46;116.47;;;19.75;;
49039;SDS011;36811;49.732;13.402;2022-10-19T06:04:13;149.15;;;23.02;;
49039;SDS011;36811;49.732;13.402;2022-10-19T06:06:39;112.35;;;21.33;;
49039;SDS011;36811;49.732;13.402;2022-10-19T06:09:07;97.43;;;19.92;;
49039;SDS011;36811;49.732;13.402;2022-10-19T06:11:34;134.20;;;22.30;;
49039;SDS011;36811;49.732;13.402;2022-10-19T06:14:05;125.35;;;21.13;;
49039;SDS011;36811;49.732;13.402;2022-10-19T06:16:33;76.47;;;18.70;;
49039;SDS011;36811;49.732;13.402;2022-10-19T06:18:59;147.38;;;22.52;;
49039;SDS011;36811;49.732;13.402;2022-10-19T06:21:27;168.30;;;25.95;;
49039;SDS011;36811;49.732;13.402;2022-10-19T06:23:59;244.43;;;30.67;;
49039;SDS011;36811;49.732;13.402;2022-10-19T06:26:27;221.80;;;26.85;;
49039;SDS011;36811;49.732;13.402;2022-10-19T06:28:56;209.07;;;27.30;;
49039;SDS011;36811;49.732;13.402;2022-10-19T06:31:25;57.72;;;15.32;;
49039;SDS011;36811;49.732;13.402;2022-10-19T06:33:54;69.25;;;16.70;;
49039;SDS011;36811;49.732;13.402;2022-10-19T06:36:21;61.17;;;17.52;;
49039;SDS011;36811;49.732;13.402;2022-10-19T06:38:48;30.92;;;12.52;;
49039;SDS011;36811;49.732;13.402;2022-10-19T06:41:14;67.93;;;18.48;;
49039;SDS011;36811;49.732;13.402;2022-10-19T06:43:41;35.33;;;13.95;;
49039;SDS011;36811;49.732;13.402;2022-10-19T06:46:09;68.20;;;16.77;;
49039;SDS011;36811;49.732;13.402;2022-10-19T06:48:37;152.23;;;23.73;;
49039;SDS011;36811;49.732;13.402;2022-10-19T06:51:04;82.97;;;17.38;;
49039;SDS011;36811;49.732;13.402;2022-10-19T06:53:32;94.53;;;19.08;;
49039;SDS011;36811;49.732;13.402;2022-10-19T06:56:00;64.57;;;14.68;;
49039;SDS011;36811;49.732;13.402;2022-10-19T06:58:27;89.82;;;18.08;;
49039;SDS011;36811;49.732;13.402;2022-10-19T07:00:58;52.13;;;17.65;;
49039;SDS011;36811;49.732;13.402;2022-10-19T07:03:25;71.22;;;19.13;;
49039;SDS011;36811;49.732;13.402;2022-10-19T07:05:56;40.97;;;16.52;;
49039;SDS011;36811;49.732;13.402;2022-10-19T07:08:24;61.80;;;18.88;;
49039;SDS011;36811;49.732;13.402;2022-10-19T07:10:51;51.50;;;18.02;;
49039;SDS011;36811;49.732;13.402;2022-10-19T07:13:18;45.65;;;16.77;;
49039;SDS011;36811;49.732;13.402;2022-10-19T07:15:44;29.77;;;13.43;;
49039;SDS011;36811;49.732;13.402;2022-10-19T07:18:10;25.85;;;13.38;;
49039;SDS011;36811;49.732;13.402;2022-10-19T07:20:37;26.15;;;13.82;;
49039;SDS011;36811;49.732;13.402;2022-10-19T07:23:03;26.10;;;12.77;;
49039;SDS011;36811;49.732;13.402;2022-10-19T07:25:28;25.83;;;13.38;;
49039;SDS011;36811;49.732;13.402;2022-10-19T07:27:55;23.90;;;11.63;;
49039;SDS011;36811;49.732;13.402;2022-10-19T07:30:21;33.22;;;15.45;;
49039;SDS011;36811;49.732;13.402;2022-10-19T07:32:47;29.40;;;16.73;;
49039;SDS011;36811;49.732;13.402;2022-10-19T07:35:13;41.92;;;23.35;;
49039;SDS011;36811;49.732;13.402;2022-10-19T07:37:39;34.72;;;20.13;;
49039;SDS011;36811;49.732;13.402;2022-10-19T07:40:05;28.88;;;17.00;;
49039;SDS011;36811;49.732;13.402;2022-10-19T07:42:32;30.73;;;18.08;;
49039;SDS011;36811;49.732;13.402;2022-10-19T07:44:57;25.15;;;15.90;;
49039;SDS011;36811;49.732;13.402;2022-10-19T07:47:23;26.00;;;16.17;;
49039;SDS011;36811;49.732;13.402;2022-10-19T07:49:49;31.98;;;20.67;;
49039;SDS011;36811;49.732;13.402;2022-10-19T07:52:14;32.65;;;16.60;;
49039;SDS011;36811;49.732;13.402;2022-10-19T07:54:41;36.70;;;21.42;;
49039;SDS011;36811;49.732;13.402;2022-10-19T07:57:07;35.90;;;19.60;;
49039;SDS011;36811;49.732;13.402;2022-10-19T07:59:35;37.63;;;21.45;;
49039;SDS011;36811;49.732;13.402;2022-10-19T08:02:01;28.58;;;17.77;;
49039;SDS011;36811;49.732;13.402;2022-10-19T08:04:29;33.58;;;18.20;;
49039;SDS011;36811;49.732;13.402;2022-10-19T08:06:55;38.85;;;19.52;;
49039;SDS011;36811;49.732;13.402;2022-10-19T08:09:21;30.73;;;18.30;;
49039;SDS011;36811;49.732;13.402;2022-10-19T08:11:46;40.15;;;22.23;;
49039;SDS011;36811;49.732;13.402;2022-10-19T08:14:12;40.60;;;21.48;;
49039;SDS011;36811;49.732;13.402;2022-10-19T08:16:38;36.70;;;21.42;;
49039;SDS011;36811;49.732;13.402;2022-10-19T08:19:09;29.70;;;19.35;;
49039;SDS011;36811;49.732;13.402;2022-10-19T08:21:37;32.63;;;19.92;;
49039;SDS011;36811;49.732;13.402;2022-10-19T08:24:06;30.63;;;16.33;;
49039;SDS011;36811;49.732;13.402;2022-10-19T08:26:35;31.80;;;18.40;;
49039;SDS011;36811;49.732;13.402;2022-10-19T08:29:07;29.23;;;18.58;;
49039;SDS011;36811;49.732;13.402;2022-10-19T08:31:41;31.70;;;18.63;;
49039;SDS011;36811;49.732;13.402;2022-10-19T08:34:08;28.50;;;19.88;;
49039;SDS011;36811;49.732;13.402;2022-10-19T08:36:34;34.97;;;21.25;;
49039;SDS011;36811;49.732;13.402;2022-10-19T08:39:02;29.38;;;18.90;;
49039;SDS011;36811;49.732;13.402;2022-10-19T08:47:12;25.95;;;19.20;;
49039;SDS011;36811;49.732;13.402;2022-10-19T08:49:55;24.30;;;15.23;;
49039;SDS011;36811;49.732;13.402;2022-10-19T08:52:25;29.58;;;15.93;;
49039;SDS011;36811;49.732;13.402;2022-10-19T08:54:58;29.25;;;16.48;;
49039;SDS011;36811;49.732;13.402;2022-10-19T08:57:30;22.15;;;13.93;;
49039;SDS011;36811;49.732;13.402;2022-10-19T09:08:18;19.75;;;12.95;;
49039;SDS011;36811;49.732;13.402;2022-10-19T09:10:46;22.17;;;14.05;;
49039;SDS011;36811;49.732;13.402;2022-10-19T09:13:30;24.35;;;13.65;;
49039;SDS011;36811;49.732;13.402;2022-10-19T09:16:04;19.10;;;13.70;;
49039;SDS011;36811;49.732;13.402;2022-10-19T09:18:32;22.85;;;12.98;;
49039;SDS011;36811;49.732;13.402;2022-10-19T09:26:10;22.48;;;12.63;;
49039;SDS011;36811;49.732;13.402;2022-10-19T09:28:42;19.92;;;11.20;;
49039;SDS011;36811;49.732;13.402;2022-10-19T09:31:21;18.88;;;12.15;;
49039;SDS011;36811;49.732;13.402;2022-10-19T09:33:56;15.57;;;10.75;;
49039;SDS011;36811;49.732;13.402;2022-10-19T09:36:28;17.02;;;10.52;;
49039;SDS011;36811;49.732;13.402;2022-10-19T09:39:00;19.42;;;11.50;;
49039;SDS011;36811;49.732;13.402;2022-10-19T09:41:27;14.45;;;8.98;;
49039;SDS011;36811;49.732;13.402;2022-10-19T09:43:53;13.05;;;9.55;;
49039;SDS011;36811;49.732;13.402;2022-10-19T09:46:31;12.95;;;8.68;;
49039;SDS011;36811;49.732;13.402;2022-10-19T09:49:08;16.08;;;8.70;;
49039;SDS011;36811;49.732;13.402;2022-10-19T09:51:43;11.05;;;8.43;;
49039;SDS011;36811;49.732;13.402;2022-10-19T09:54:31;12.05;;;6.90;;
49039;SDS011;36811;49.732;13.402;2022-10-19T09:56:59;14.02;;;7.90;;
49039;SDS011;36811;49.732;13.402;2022-10-19T09:59:27;15.40;;;8.18;;
49039;SDS011;36811;49.732;13.402;2022-10-19T10:02:16;13.32;;;7.45;;
49039;SDS011;36811;49.732;13.402;2022-10-19T10:04:47;14.73;;;7.70;;
49039;SDS011;36811;49.732;13.402;2022-10-19T10:07:21;9.38;;;7.13;;
49039;SDS011;36811;49.732;13.402;2022-10-19T10:09:51;14.43;;;8.32;;
49039;SDS011;36811;49.732;13.402;2022-10-19T10:12:17;10.80;;;7.07;;
49039;SDS011;36811;49.732;13.402;2022-10-19T10:14:43;18.15;;;7.90;;
49039;SDS011;36811;49.732;13.402;2022-10-19T10:17:14;10.80;;;6.30;;
49039;SDS011;36811;49.732;13.402;2022-10-19T10:22:33;13.27;;;6.20;;
49039;SDS011;36811;49.732;13.402;2022-10-19T10:25:01;16.55;;;6.40;;
49039;SDS011;36811;49.732;13.402;2022-10-19T10:27:37;10.90;;;6.10;;
49039;SDS011;36811;49.732;13.402;2022-10-19T10:30:07;9.40;;;6.13;;
49039;SDS011;36811;49.732;13.402;2022-10-19T10:32:57;11.45;;;6.15;;
49039;SDS011;36811;49.732;13.402;2022-10-19T10:35:33;9.18;;;5.82;;
49039;SDS011;36811;49.732;13.402;2022-10-19T10:38:03;9.70;;;5.75;;
49039;SDS011;36811;49.732;13.402;2022-10-19T10:40:38;12.52;;;6.40;;
49039;SDS011;36811;49.732;13.402;2022-10-19T10:43:08;8.73;;;5.57;;
49039;SDS011;36811;49.732;13.402;2022-10-19T10:45:40;10.20;;;5.78;;
49039;SDS011;36811;49.732;13.402;2022-10-19T10:48:18;19.15;;;6.35;;
49039;SDS011;36811;49.732;13.402;2022-10-19T10:50:53;12.35;;;5.38;;
49039;SDS011;36811;49.732;13.402;2022-10-19T10:53:39;13.38;;;5.88;;
49039;SDS011;36811;49.732;13.402;2022-10-19T10:56:18;7.72;;;4.28;;
49039;SDS011;36811;49.732;13.402;2022-10-19T11:01:40;12.32;;;4.40;;
49039;SDS011;36811;49.732;13.402;2022-10-19T11:04:16;9.15;;;4.55;;
49039;SDS011;36811;49.732;13.402;2022-10-19T11:06:50;9.73;;;4.25;;
49039;SDS011;36811;49.732;13.402;2022-10-19T11:11:54;9.57;;;5.30;;
49039;SDS011;36811;49.732;13.402;2022-10-19T11:14:35;11.82;;;5.13;;
49039;SDS011;36811;49.732;13.402;2022-10-19T11:17:12;8.25;;;4.90;;
49039;SDS011;36811;49.732;13.402;2022-10-19T11:19:46;8.43;;;4.90;;
49039;SDS011;36811;49.732;13.402;2022-10-19T11:22:18;13.10;;;5.05;;
49039;SDS011;36811;49.732;13.402;2022-10-19T11:27:36;10.32;;;4.70;;
49039;SDS011;36811;49.732;13.402;2022-10-19T11:30:14;9.23;;;4.82;;
49039;SDS011;36811;49.732;13.402;2022-10-19T11:43:25;9.48;;;4.55;;
49039;SDS011;36811;49.732;13.402;2022-10-19T11:46:28;7.30;;;4.07;;
49039;SDS011;36811;49.732;13.402;2022-10-19T11:52:17;6.97;;;3.83;;
49039;SDS011;36811;49.732;13.402;2022-10-19T11:57:27;10.13;;;5.90;;
49039;SDS011;36811;49.732;13.402;2022-10-19T12:05:27;11.27;;;5.82;;
49039;SDS011;36811;49.732;13.402;2022-10-19T12:08:05;13.10;;;6.22;;
49039;SDS011;36811;49.732;13.402;2022-10-19T12:14:04;11.32;;;6.00;;
49039;SDS011;36811;49.732;13.402;2022-10-19T12:16:39;12.90;;;5.63;;
49039;SDS011;36811;49.732;13.402;2022-10-19T12:19:10;12.13;;;5.82;;
49039;SDS011;36811;49.732;13.402;2022-10-19T12:21:42;13.75;;;5.57;;
49039;SDS011;36811;49.732;13.402;2022-10-19T12:24:12;11.27;;;5.60;;
49039;SDS011;36811;49.732;13.402;2022-10-19T12:26:42;9.45;;;5.38;;
49039;SDS011;36811;49.732;13.402;2022-10-19T12:29:18;15.32;;;6.40;;
49039;SDS011;36811;49.732;13.402;2022-10-19T12:31:49;13.55;;;6.05;;
49039;SDS011;36811;49.732;13.402;2022-10-19T12:34:34;11.25;;;5.03;;
49039;SDS011;36811;49.732;13.402;2022-10-19T12:40:00;12.77;;;5.40;;
49039;SDS011;36811;49.732;13.402;2022-10-19T12:45:34;13.05;;;4.95;;
49039;SDS011;36811;49.732;13.402;2022-10-19T12:53:28;15.00;;;5.20;;
49039;SDS011;36811;49.732;13.402;2022-10-19T12:58:38;12.77;;;6.03;;
49039;SDS011;36811;49.732;13.402;2022-10-19T13:01:20;16.00;;;6.18;;
49039;SDS011;36811;49.732;13.402;2022-10-19T13:06:28;11.20;;;5.40;;
49039;SDS011;36811;49.732;13.402;2022-10-19T13:09:02;15.75;;;5.10;;
49039;SDS011;36811;49.732;13.402;2022-10-19T13:11:33;13.07;;;5.40;;
49039;SDS011;36811;49.732;13.402;2022-10-19T13:21:46;9.93;;;4.78;;
49039;SDS011;36811;49.732;13.402;2022-10-19T13:38:09;11.40;;;5.55;;
49039;SDS011;36811;49.732;13.402;2022-10-19T13:43:19;12.10;;;5.50;;
49039;SDS011;36811;49.732;13.402;2022-10-19T13:51:31;11.25;;;4.70;;
49039;SDS011;36811;49.732;13.402;2022-10-19T13:57:56;8.05;;;4.88;;
49039;SDS011;36811;49.732;13.402;2022-10-19T14:05:44;8.52;;;4.22;;
49039;SDS011;36811;49.732;13.402;2022-10-19T14:08:42;8.05;;;4.63;;
49039;SDS011;36811;49.732;13.402;2022-10-19T14:11:23;11.90;;;4.43;;
49039;SDS011;36811;49.732;13.402;2022-10-19T14:22:16;7.32;;;3.90;;
49039;SDS011;36811;49.732;13.402;2022-10-19T14:24:44;11.57;;;4.43;;
49039;SDS011;36811;49.732;13.402;2022-10-19T14:27:12;30.83;;;4.90;;
49039;SDS011;36811;49.732;13.402;2022-10-19T14:29:49;19.23;;;4.53;;
49039;SDS011;36811;49.732;13.402;2022-10-19T14:32:20;5.78;;;3.75;;
49039;SDS011;36811;49.732;13.402;2022-10-19T14:34:49;6.90;;;4.22;;
49039;SDS011;36811;49.732;13.402;2022-10-19T14:37:19;15.40;;;4.90;;
49039;SDS011;36811;49.732;13.402;2022-10-19T14:40:01;7.15;;;4.03;;
49039;SDS011;36811;49.732;13.402;2022-10-19T14:42:36;12.38;;;4.85;;
49039;SDS011;36811;49.732;13.402;2022-10-19T14:45:14;9.57;;;4.68;;
49039;SDS011;36811;49.732;13.402;2022-10-19T14:48:05;9.98;;;4.25;;
49039;SDS011;36811;49.732;13.402;2022-10-19T14:50:33;14.82;;;4.50;;
49039;SDS011;36811;49.732;13.402;2022-10-19T14:53:17;10.05;;;4.03;;
49039;SDS011;36811;49.732;13.402;2022-10-19T14:56:26;8.15;;;4.13;;
49039;SDS011;36811;49.732;13.402;2022-10-19T15:01:39;8.38;;;4.25;;
49039;SDS011;36811;49.732;13.402;2022-10-19T15:04:05;13.85;;;4.20;;
49039;SDS011;36811;49.732;13.402;2022-10-19T15:06:31;11.07;;;4.18;;
49039;SDS011;36811;49.732;13.402;2022-10-19T15:09:06;7.07;;;3.80;;
49039;SDS011;36811;49.732;13.402;2022-10-19T15:11:47;7.70;;;3.65;;
49039;SDS011;36811;49.732;13.402;2022-10-19T15:14:15;11.73;;;3.72;;
49039;SDS011;36811;49.732;13.402;2022-10-19T15:16:53;9.55;;;4.13;;
49039;SDS011;36811;49.732;13.402;2022-10-19T15:19:24;10.38;;;3.78;;
49039;SDS011;36811;49.732;13.402;2022-10-19T15:24:34;10.23;;;4.30;;
49039;SDS011;36811;49.732;13.402;2022-10-19T15:27:07;7.70;;;4.00;;
49039;SDS011;36811;49.732;13.402;2022-10-19T15:29:35;14.30;;;4.72;;
49039;SDS011;36811;49.732;13.402;2022-10-19T15:32:14;13.60;;;4.80;;
49039;SDS011;36811;49.732;13.402;2022-10-19T15:34:44;12.52;;;5.18;;
49039;SDS011;36811;49.732;13.402;2022-10-19T15:37:14;12.55;;;5.10;;
49039;SDS011;36811;49.732;13.402;2022-10-19T15:39:45;21.27;;;6.85;;
49039;SDS011;36811;49.732;13.402;2022-10-19T15:44:48;11.13;;;5.15;;
49039;SDS011;36811;49.732;13.402;2022-10-19T15:52:24;13.88;;;5.00;;
49039;SDS011;36811;49.732;13.402;2022-10-19T15:54:56;17.40;;;5.68;;
49039;SDS011;36811;49.732;13.402;2022-10-19T15:57:30;9.63;;;4.88;;
49039;SDS011;36811;49.732;13.402;2022-10-19T16:00:09;15.07;;;4.90;;
49039;SDS011;36811;49.732;13.402;2022-10-19T16:02:39;14.63;;;5.07;;
49039;SDS011;36811;49.732;13.402;2022-10-19T16:05:06;16.50;;;5.25;;
49039;SDS011;36811;49.732;13.402;2022-10-19T16:07:34;18.67;;;7.03;;
49039;SDS011;36811;49.732;13.402;2022-10-19T16:10:02;24.45;;;7.53;;
49039;SDS011;36811;49.732;13.402;2022-10-19T16:12:28;14.43;;;6.30;;
49039;SDS011;36811;49.732;13.402;2022-10-19T16:14:54;15.35;;;5.90;;
49039;SDS011;36811;49.732;13.402;2022-10-19T16:17:20;8.35;;;4.82;;
49039;SDS011;36811;49.732;13.402;2022-10-19T16:19:47;21.25;;;5.88;;
49039;SDS011;36811;49.732;13.402;2022-10-19T16:22:13;14.30;;;5.55;;
49039;SDS011;36811;49.732;13.402;2022-10-19T16:24:39;21.10;;;8.50;;
49039;SDS011;36811;49.732;13.402;2022-10-19T16:27:06;16.08;;;6.32;;
49039;SDS011;36811;49.732;13.402;2022-10-19T16:29:32;15.25;;;5.70;;
49039;SDS011;36811;49.732;13.402;2022-10-19T16:31:59;23.42;;;6.22;;
49039;SDS011;36811;49.732;13.402;2022-10-19T16:34:25;16.25;;;5.57;;
49039;SDS011;36811;49.732;13.402;2022-10-19T16:36:51;10.10;;;4.65;;
49039;SDS011;36811;49.732;13.402;2022-10-19T16:39:17;9.68;;;4.95;;
49039;SDS011;36811;49.732;13.402;2022-10-19T16:41:42;12.45;;;6.00;;
49039;SDS011;36811;49.732;13.402;2022-10-19T16:44:09;13.98;;;6.57;;
49039;SDS011;36811;49.732;13.402;2022-10-19T16:46:36;17.45;;;6.93;;
49039;SDS011;36811;49.732;13.402;2022-10-19T16:49:03;21.58;;;7.55;;
49039;SDS011;36811;49.732;13.402;2022-10-19T16:51:35;19.23;;;8.23;;
49039;SDS011;36811;49.732;13.402;2022-10-19T16:54:03;17.02;;;8.45;;
49039;SDS011;36811;49.732;13.402;2022-10-19T16:56:31;17.27;;;8.15;;
49039;SDS011;36811;49.732;13.402;2022-10-19T16:58:59;25.55;;;8.77;;
49039;SDS011;36811;49.732;13.402;2022-10-19T17:01:29;15.43;;;9.02;;
49039;SDS011;36811;49.732;13.402;2022-10-19T17:03:57;21.70;;;9.25;;